Time;durP1;ratioP1;P1;durP2;ratioP2;P2;SDS_P1;SDS_P2;PMS_P1;PMS_P2;Temp;Humidity;BMP_temperature;BMP_pressure;BME280_temperature;BME280_humidity;BME280_pressure;Samples;Min_cycle;Max_cycle;Signal;HPM_P1;HPM_P2
2023/08/01 00:01:47;;;;;;;10.45;5.05;;;;;;;;;;5018800;28;20053;-68
2023/08/01 00:04:13;;;;;;;5.53;2.97;;;;;;;;;;5027261;28;20046;-64
2023/08/01 00:06:40;;;;;;;5.25;2.70;;;;;;;;;;5019937;28;20997;-63
2023/08/01 00:09:07;;;;;;;5.90;3.50;;;;;;;;;;5040636;28;20048;-64
2023/08/01 00:11:33;;;;;;;5.88;2.75;;;;;;;;;;5026316;28;20034;-65
2023/08/01 00:14:01;;;;;;;6.32;2.85;;;;;;;;;;5030007;28;20163;-65
2023/08/01 00:16:28;;;;;;;7.03;2.58;;;;;;;;;;5029576;28;20390;-63
2023/08/01 00:18:54;;;;;;;6.95;2.95;;;;;;;;;;5027985;28;20137;-64
2023/08/01 00:21:21;;;;;;;5.43;3.10;;;;;;;;;;5028419;28;21602;-67
2023/08/01 00:23:47;;;;;;;6.95;2.92;;;;;;;;;;5023918;28;21047;-64
2023/08/01 00:26:14;;;;;;;6.03;2.70;;;;;;;;;;5018930;28;20199;-64
2023/08/01 00:28:40;;;;;;;6.88;2.72;;;;;;;;;;5019814;28;20046;-64
2023/08/01 00:31:11;;;;;;;5.78;2.53;;;;;;;;;;5018611;28;20398;-63
2023/08/01 00:33:38;;;;;;;6.35;2.33;;;;;;;;;;5018036;28;20030;-66
2023/08/01 00:36:08;;;;;;;7.70;3.03;;;;;;;;;;5018163;28;20041;-65
2023/08/01 00:38:36;;;;;;;6.93;2.53;;;;;;;;;;5032265;28;20033;-65
2023/08/01 00:41:03;;;;;;;6.68;2.63;;;;;;;;;;5014991;28;20045;-65
2023/08/01 00:43:30;;;;;;;5.93;2.50;;;;;;;;;;5013982;28;20038;-64
2023/08/01 00:46:00;;;;;;;5.90;2.35;;;;;;;;;;5017054;28;20080;-63
2023/08/01 00:48:28;;;;;;;5.40;2.50;;;;;;;;;;5030218;28;20434;-64
2023/08/01 00:50:56;;;;;;;7.80;2.65;;;;;;;;;;5018655;28;20037;-65
2023/08/01 00:53:23;;;;;;;6.25;2.53;;;;;;;;;;5032479;28;20418;-62
2023/08/01 00:55:49;;;;;;;6.40;2.22;;;;;;;;;;5032298;28;20123;-64
2023/08/01 00:58:16;;;;;;;5.85;2.47;;;;;;;;;;5005077;28;20462;-64
2023/08/01 01:00:42;;;;;;;5.95;2.90;;;;;;;;;;5004973;28;20041;-68
2023/08/01 01:03:09;;;;;;;4.43;2.20;;;;;;;;;;5005747;28;20042;-65
2023/08/01 01:05:40;;;;;;;6.30;2.60;;;;;;;;;;5004617;28;20087;-65
2023/08/01 01:08:07;;;;;;;7.53;2.75;;;;;;;;;;5019633;28;20077;-65
2023/08/01 01:10:33;;;;;;;6.68;2.70;;;;;;;;;;5003040;28;20042;-64
2023/08/01 01:13:00;;;;;;;6.88;2.95;;;;;;;;;;5004699;28;20049;-64
2023/08/01 01:15:26;;;;;;;5.30;2.60;;;;;;;;;;5004256;28;20034;-65
2023/08/01 01:17:53;;;;;;;6.68;2.50;;;;;;;;;;5003066;28;20050;-66
2023/08/01 02:33:51;;;;;;;7.35;2.88;;;;;;;;;;5005805;28;20456;-66
2023/08/01 02:36:17;;;;;;;5.65;2.83;;;;;;;;;;4999058;28;20039;-66
2023/08/01 02:38:44;;;;;;;13.32;3.13;;;;;;;;;;4997815;28;20404;-67
2023/08/01 02:41:11;;;;;;;7.07;2.70;;;;;;;;;;4982653;28;20053;-66
2023/08/01 02:43:37;;;;;;;6.45;3.00;;;;;;;;;;4980726;28;20038;-67
2023/08/01 02:46:05;;;;;;;7.70;3.35;;;;;;;;;;4983793;28;20054;-66
2023/08/01 02:48:34;;;;;;;6.80;2.83;;;;;;;;;;4997729;28;20442;-66
2023/08/01 02:51:01;;;;;;;5.45;2.95;;;;;;;;;;4983383;28;20103;-67
2023/08/01 02:53:28;;;;;;;4.78;2.63;;;;;;;;;;4981946;28;20101;-67
2023/08/01 02:55:54;;;;;;;6.07;2.75;;;;;;;;;;4999360;28;20061;-72
2023/08/01 02:58:21;;;;;;;5.40;2.63;;;;;;;;;;4985161;28;20394;-69
2023/08/01 03:00:47;;;;;;;11.23;2.97;;;;;;;;;;4981564;28;20046;-69
2023/08/01 03:03:15;;;;;;;5.43;2.75;;;;;;;;;;4985450;28;20043;-68
2023/08/01 03:05:42;;;;;;;5.65;2.67;;;;;;;;;;4997543;28;20046;-67
2023/08/01 03:08:08;;;;;;;5.65;2.47;;;;;;;;;;4984550;28;20804;-67
2023/08/01 03:10:35;;;;;;;5.25;2.67;;;;;;;;;;4982491;28;20034;-67
2023/08/01 03:13:02;;;;;;;5.82;2.38;;;;;;;;;;4993494;28;20363;-67
2023/08/01 03:15:28;;;;;;;6.10;2.30;;;;;;;;;;4992693;28;20043;-67
2023/08/01 03:17:55;;;;;;;12.18;2.75;;;;;;;;;;4997198;28;20072;-67
2023/08/01 03:20:22;;;;;;;5.35;2.50;;;;;;;;;;4995548;28;20051;-67
2023/08/01 03:22:49;;;;;;;5.35;2.30;;;;;;;;;;4995719;28;20085;-67
2023/08/01 03:25:15;;;;;;;7.20;3.47;;;;;;;;;;4998912;28;20034;-67
2023/08/01 03:28:43;;;;;;;8.20;3.25;;;;;;;;;;5097565;27;20903;-70
2023/08/01 03:31:09;;;;;;;4.72;2.38;;;;;;;;;;5094124;28;21847;-65
2023/08/01 03:33:36;;;;;;;6.57;2.65;;;;;;;;;;5089661;28;20217;-65
2023/08/01 03:36:03;;;;;;;4.65;2.55;;;;;;;;;;5071367;27;20885;-65
2023/08/01 03:38:30;;;;;;;5.60;2.45;;;;;;;;;;5068935;28;20036;-68
2023/08/01 03:40:57;;;;;;;6.30;2.58;;;;;;;;;;5072404;28;20471;-67
2023/08/01 03:43:23;;;;;;;5.82;2.38;;;;;;;;;;5072154;27;20032;-64
2023/08/01 03:45:50;;;;;;;6.28;2.58;;;;;;;;;;5076458;28;20072;-65
2023/08/01 03:48:17;;;;;;;4.35;2.38;;;;;;;;;;5072119;27;20056;-66
2023/08/01 03:50:44;;;;;;;7.35;2.33;;;;;;;;;;5069676;27;20538;-64
2023/08/01 03:53:10;;;;;;;4.30;1.90;;;;;;;;;;5071728;27;20117;-64
2023/08/01 03:55:37;;;;;;;5.20;2.33;;;;;;;;;;5077149;27;20042;-65
2023/08/01 03:58:03;;;;;;;7.88;2.20;;;;;;;;;;5070119;27;20037;-65
2023/08/01 04:00:33;;;;;;;6.97;2.40;;;;;;;;;;5069523;27;20096;-65
2023/08/01 04:03:01;;;;;;;5.68;1.98;;;;;;;;;;5069647;27;20060;-65
2023/08/01 04:05:28;;;;;;;4.55;2.30;;;;;;;;;;5069096;27;20118;-65
2023/08/01 04:07:55;;;;;;;7.22;2.42;;;;;;;;;;5070974;28;20509;-64
2023/08/01 04:10:22;;;;;;;5.13;2.30;;;;;;;;;;5083954;27;20043;-64
2023/08/01 04:12:49;;;;;;;9.32;4.35;;;;;;;;;;5075087;28;20032;-72
2023/08/01 04:15:15;;;;;;;6.55;3.80;;;;;;;;;;5075514;28;20039;-64
2023/08/01 04:17:42;;;;;;;5.35;2.10;;;;;;;;;;5070949;27;20050;-65
2023/08/01 04:20:09;;;;;;;4.20;2.03;;;;;;;;;;5070827;27;20044;-65
2023/08/01 04:22:35;;;;;;;6.18;2.53;;;;;;;;;;5071180;27;20106;-67
2023/08/01 04:25:02;;;;;;;5.50;2.25;;;;;;;;;;5071245;28;20033;-66
2023/08/01 04:27:29;;;;;;;5.93;2.20;;;;;;;;;;5070069;28;20043;-66
2023/08/01 04:29:56;;;;;;;4.25;2.10;;;;;;;;;;5072631;28;20519;-66
2023/08/01 04:32:23;;;;;;;6.85;2.70;;;;;;;;;;5074246;27;20926;-66
2023/08/01 04:34:50;;;;;;;6.47;2.42;;;;;;;;;;5075363;28;20044;-66
2023/08/01 04:37:17;;;;;;;7.22;4.18;;;;;;;;;;5085318;28;20076;-66
2023/08/01 04:39:44;;;;;;;6.85;2.22;;;;;;;;;;5065362;28;20607;-65
2023/08/01 04:42:11;;;;;;;4.63;2.33;;;;;;;;;;5061969;28;21019;-66
2023/08/01 04:44:37;;;;;;;5.78;2.28;;;;;;;;;;5058332;28;20048;-64
2023/08/01 04:47:04;;;;;;;7.18;2.50;;;;;;;;;;5061919;28;20051;-65
2023/08/01 04:49:31;;;;;;;6.10;2.03;;;;;;;;;;5059708;28;20229;-64
2023/08/01 04:51:57;;;;;;;6.45;2.38;;;;;;;;;;5061218;28;20041;-65
2023/08/01 04:54:24;;;;;;;4.95;2.28;;;;;;;;;;5059396;28;20044;-65
2023/08/01 04:56:51;;;;;;;6.05;2.45;;;;;;;;;;5077271;28;20123;-65
2023/08/01 04:59:17;;;;;;;6.75;2.60;;;;;;;;;;5060825;28;20043;-65
2023/08/01 05:01:44;;;;;;;6.63;2.35;;;;;;;;;;5057652;28;21804;-64
2023/08/01 05:04:11;;;;;;;7.28;2.42;;;;;;;;;;5058761;28;20120;-67
2023/08/01 05:06:38;;;;;;;7.63;2.88;;;;;;;;;;5057647;28;20141;-67
2023/08/01 05:09:05;;;;;;;5.47;2.50;;;;;;;;;;5062438;28;20032;-65
2023/08/01 05:11:31;;;;;;;4.90;2.50;;;;;;;;;;5059930;28;21249;-66
2023/08/01 05:13:58;;;;;;;4.75;2.28;;;;;;;;;;5057133;28;20060;-67
2023/08/01 05:16:24;;;;;;;5.25;2.53;;;;;;;;;;5056424;28;20043;-66
2023/08/01 05:18:51;;;;;;;5.95;2.38;;;;;;;;;;5055652;28;20037;-67
2023/08/01 05:21:18;;;;;;;6.03;2.20;;;;;;;;;;5057954;28;20045;-64
2023/08/01 05:23:44;;;;;;;8.30;3.20;;;;;;;;;;5054446;28;20047;-64
2023/08/01 05:26:11;;;;;;;8.02;3.15;;;;;;;;;;5056516;28;20831;-64
2023/08/01 05:28:37;;;;;;;6.72;3.08;;;;;;;;;;5072101;28;20661;-64
2023/08/01 05:31:04;;;;;;;6.35;2.95;;;;;;;;;;5070266;28;20119;-65
2023/08/01 05:33:31;;;;;;;7.68;3.55;;;;;;;;;;5056225;28;20040;-65
2023/08/01 05:35:57;;;;;;;7.10;3.50;;;;;;;;;;5055843;28;20133;-65
2023/08/01 05:38:24;;;;;;;8.82;3.40;;;;;;;;;;5055647;28;20041;-65
2023/08/01 05:40:51;;;;;;;8.20;3.60;;;;;;;;;;5058715;28;20039;-65
2023/08/01 05:43:17;;;;;;;8.70;3.88;;;;;;;;;;5056025;28;20175;-64
2023/08/01 05:45:44;;;;;;;7.82;3.70;;;;;;;;;;5053174;28;20044;-64
2023/08/01 05:48:11;;;;;;;7.75;3.60;;;;;;;;;;5054994;28;20045;-65
2023/08/01 05:50:38;;;;;;;6.18;3.35;;;;;;;;;;5054020;28;20029;-64
2023/08/01 05:53:04;;;;;;;8.18;3.58;;;;;;;;;;5056821;28;20064;-65
2023/08/01 05:55:31;;;;;;;7.07;3.30;;;;;;;;;;5051549;28;20488;-64
2023/08/01 05:57:58;;;;;;;7.07;3.80;;;;;;;;;;5059644;28;20094;-65
2023/08/01 06:00:24;;;;;;;9.35;3.60;;;;;;;;;;5053894;28;20043;-65
2023/08/01 06:02:51;;;;;;;7.53;3.72;;;;;;;;;;5058418;28;20116;-65
2023/08/01 06:05:17;;;;;;;6.63;3.45;;;;;;;;;;5057655;28;20041;-65
2023/08/01 06:07:44;;;;;;;9.38;3.50;;;;;;;;;;5057868;28;20889;-65
2023/08/01 06:10:11;;;;;;;9.77;3.95;;;;;;;;;;5057287;28;20407;-64
2023/08/01 06:12:37;;;;;;;7.05;3.58;;;;;;;;;;5057731;28;20032;-65
2023/08/01 06:15:04;;;;;;;5.93;4.00;;;;;;;;;;5057189;28;20036;-64
2023/08/01 06:17:31;;;;;;;7.72;4.07;;;;;;;;;;5055322;28;20045;-64
2023/08/01 06:19:58;;;;;;;8.23;4.05;;;;;;;;;;5053946;28;20040;-66
2023/08/01 06:22:24;;;;;;;10.05;4.03;;;;;;;;;;5053569;28;20035;-64
2023/08/01 06:24:51;;;;;;;7.60;4.28;;;;;;;;;;5054547;28;20036;-65
2023/08/01 06:27:17;;;;;;;9.57;4.18;;;;;;;;;;5054324;28;20118;-66
2023/08/01 06:29:45;;;;;;;7.03;4.10;;;;;;;;;;5052206;28;20107;-64
2023/08/01 06:32:12;;;;;;;7.65;4.07;;;;;;;;;;5053554;28;20040;-65
2023/08/01 06:34:39;;;;;;;8.27;4.15;;;;;;;;;;5056158;28;20039;-65
2023/08/01 06:37:05;;;;;;;8.52;4.18;;;;;;;;;;5057174;28;20037;-67
2023/08/01 06:39:32;;;;;;;8.70;4.50;;;;;;;;;;5053893;28;20414;-65
2023/08/01 06:41:58;;;;;;;7.63;4.30;;;;;;;;;;5058210;28;20033;-65
2023/08/01 06:44:25;;;;;;;7.30;4.32;;;;;;;;;;5057368;28;20152;-65
2023/08/01 06:46:52;;;;;;;7.25;4.15;;;;;;;;;;5056492;28;20059;-66
2023/08/01 06:49:18;;;;;;;7.00;4.40;;;;;;;;;;5054751;28;20118;-67
2023/08/01 06:51:45;;;;;;;6.78;4.10;;;;;;;;;;5053748;28;20045;-65
2023/08/01 06:54:11;;;;;;;8.77;4.38;;;;;;;;;;5055774;28;20710;-65
2023/08/01 06:56:38;;;;;;;6.90;4.05;;;;;;;;;;5053626;28;20157;-65
2023/08/01 06:59:05;;;;;;;9.07;4.25;;;;;;;;;;5054673;28;20195;-63
2023/08/01 07:01:34;;;;;;;6.55;4.22;;;;;;;;;;5061440;27;20043;-64
2023/08/01 07:04:01;;;;;;;7.35;4.22;;;;;;;;;;5058618;28;20040;-65
2023/08/01 07:06:28;;;;;;;7.80;3.80;;;;;;;;;;5054056;28;20048;-66
2023/08/01 07:08:54;;;;;;;11.82;4.30;;;;;;;;;;5053332;28;20116;-64
2023/08/01 07:11:21;;;;;;;10.52;4.15;;;;;;;;;;5055403;28;21770;-66
2023/08/01 07:13:47;;;;;;;10.15;4.68;;;;;;;;;;5056170;28;20033;-65
2023/08/01 07:16:14;;;;;;;7.95;4.10;;;;;;;;;;5056145;28;20071;-65
2023/08/01 07:18:41;;;;;;;8.75;4.25;;;;;;;;;;5064848;28;20399;-66
2023/08/01 07:21:08;;;;;;;10.45;3.97;;;;;;;;;;5054367;28;20037;-65
2023/08/01 07:23:36;;;;;;;6.53;4.00;;;;;;;;;;5054415;28;20041;-67
2023/08/01 07:26:22;;;;;;;8.30;4.13;;;;;;;;;;5059933;28;20044;-66
2023/08/01 07:28:48;;;;;;;7.70;4.40;;;;;;;;;;5047382;28;20539;-65
2023/08/01 07:31:15;;;;;;;9.40;4.20;;;;;;;;;;5062086;28;20139;-64
2023/08/01 07:33:43;;;;;;;7.50;4.40;;;;;;;;;;5061676;28;20044;-66
2023/08/01 07:36:09;;;;;;;7.30;4.13;;;;;;;;;;5061817;28;20033;-66
2023/08/01 07:38:36;;;;;;;9.38;4.68;;;;;;;;;;5060474;28;20033;-65
2023/08/01 07:41:04;;;;;;;8.18;4.63;;;;;;;;;;5060309;28;20055;-63
2023/08/01 07:43:30;;;;;;;8.00;4.07;;;;;;;;;;5060374;28;20097;-65
2023/08/01 07:45:58;;;;;;;7.00;3.97;;;;;;;;;;5059500;28;20080;-66
2023/08/01 07:48:24;;;;;;;9.70;4.18;;;;;;;;;;5058135;28;20052;-66
2023/08/01 07:50:51;;;;;;;7.38;4.53;;;;;;;;;;5060349;28;20051;-64
2023/08/01 07:53:18;;;;;;;6.75;4.03;;;;;;;;;;5060373;28;20195;-65
2023/08/01 07:55:45;;;;;;;6.97;4.28;;;;;;;;;;5061188;28;20037;-64
2023/08/01 07:58:11;;;;;;;7.40;4.65;;;;;;;;;;5061462;28;20669;-63
2023/08/01 08:00:38;;;;;;;8.63;4.78;;;;;;;;;;5050345;28;20467;-64
2023/08/01 08:03:08;;;;;;;6.45;4.10;;;;;;;;;;5066046;28;20059;-64
2023/08/01 08:05:38;;;;;;;8.82;4.53;;;;;;;;;;5058922;28;20036;-66
2023/08/01 08:08:05;;;;;;;8.20;4.43;;;;;;;;;;5054035;28;20048;-66
2023/08/01 08:10:32;;;;;;;9.02;4.95;;;;;;;;;;5053779;28;20157;-65
2023/08/01 08:12:58;;;;;;;9.80;4.82;;;;;;;;;;5054456;28;20041;-65
2023/08/01 08:15:26;;;;;;;6.55;4.30;;;;;;;;;;5057151;28;20068;-64
2023/08/01 08:17:52;;;;;;;9.82;4.38;;;;;;;;;;5056327;28;20505;-65
2023/08/01 08:20:19;;;;;;;8.88;4.40;;;;;;;;;;5056165;28;20040;-66
2023/08/01 08:22:45;;;;;;;8.30;4.40;;;;;;;;;;5056519;28;20040;-65
2023/08/01 08:25:12;;;;;;;7.50;4.38;;;;;;;;;;5056560;28;20486;-65
2023/08/01 08:27:39;;;;;;;7.55;3.95;;;;;;;;;;5056631;28;20147;-65
2023/08/01 08:30:06;;;;;;;7.03;4.25;;;;;;;;;;5058440;28;20064;-65
2023/08/01 08:32:32;;;;;;;6.88;4.65;;;;;;;;;;5060346;28;20477;-65
2023/08/01 08:34:59;;;;;;;7.40;4.85;;;;;;;;;;5058948;28;20045;-66
2023/08/01 08:37:25;;;;;;;8.95;4.22;;;;;;;;;;5082794;27;20046;-65
2023/08/01 08:39:52;;;;;;;7.57;4.68;;;;;;;;;;5061175;28;20045;-65
2023/08/01 08:42:19;;;;;;;10.90;4.80;;;;;;;;;;5060166;28;20453;-66
2023/08/01 08:44:50;;;;;;;7.95;4.38;;;;;;;;;;5062087;28;20095;-64
2023/08/01 08:47:18;;;;;;;7.65;4.57;;;;;;;;;;5055834;28;20071;-65
2023/08/01 08:49:46;;;;;;;6.97;4.32;;;;;;;;;;5054809;28;20480;-65
2023/08/01 08:52:13;;;;;;;7.43;4.80;;;;;;;;;;5060656;28;20120;-64
2023/08/01 08:54:41;;;;;;;9.73;4.65;;;;;;;;;;5056154;28;20036;-65
2023/08/01 08:57:08;;;;;;;7.05;4.57;;;;;;;;;;5071610;28;20029;-65
2023/08/01 08:59:34;;;;;;;7.00;4.50;;;;;;;;;;5069123;28;20097;-66
2023/08/01 09:02:03;;;;;;;7.75;4.85;;;;;;;;;;5056296;28;20070;-66
2023/08/01 09:04:30;;;;;;;7.72;4.50;;;;;;;;;;5055946;28;20047;-67
2023/08/01 09:06:59;;;;;;;9.02;4.18;;;;;;;;;;5055335;28;20109;-65
2023/08/01 09:09:27;;;;;;;7.90;4.47;;;;;;;;;;5055366;28;20032;-66
2023/08/01 09:11:56;;;;;;;8.43;4.50;;;;;;;;;;5056123;28;20491;-65
2023/08/01 09:14:24;;;;;;;9.52;5.22;;;;;;;;;;5054806;28;20033;-66
2023/08/01 09:16:50;;;;;;;10.25;4.82;;;;;;;;;;5054342;28;20059;-65
2023/08/01 09:19:18;;;;;;;8.02;4.82;;;;;;;;;;5056745;28;20147;-65
2023/08/01 09:21:44;;;;;;;8.88;4.75;;;;;;;;;;5059615;28;20453;-64
2023/08/01 09:24:18;;;;;;;8.95;4.75;;;;;;;;;;5058492;28;20040;-65
2023/08/01 09:26:45;;;;;;;7.70;4.57;;;;;;;;;;5059761;28;20076;-66
2023/08/01 09:29:12;;;;;;;8.02;4.65;;;;;;;;;;5057021;28;20040;-65
2023/08/01 09:31:40;;;;;;;7.85;4.70;;;;;;;;;;5077017;28;20511;-65
2023/08/01 09:34:07;;;;;;;9.93;5.35;;;;;;;;;;5061644;28;20052;-64
2023/08/01 09:36:34;;;;;;;9.90;5.50;;;;;;;;;;5061731;28;20039;-65
2023/08/01 09:39:02;;;;;;;8.30;5.07;;;;;;;;;;5060077;28;20028;-64
2023/08/01 09:41:30;;;;;;;10.35;5.53;;;;;;;;;;5060175;28;20037;-67
2023/08/01 09:43:56;;;;;;;11.45;5.15;;;;;;;;;;5060774;28;20670;-64
2023/08/01 09:46:23;;;;;;;10.43;5.38;;;;;;;;;;5056484;28;20044;-66
2023/08/01 09:48:50;;;;;;;8.00;5.13;;;;;;;;;;5061682;28;20940;-67
2023/08/01 09:51:18;;;;;;;9.90;5.25;;;;;;;;;;5060148;28;20110;-64
2023/08/01 09:53:49;;;;;;;12.45;5.50;;;;;;;;;;5058225;28;20041;-65
2023/08/01 09:56:18;;;;;;;8.00;4.97;;;;;;;;;;5061472;28;20424;-65
2023/08/01 09:58:46;;;;;;;9.15;5.32;;;;;;;;;;5053559;28;21656;-65
2023/08/01 10:01:13;;;;;;;9.85;5.15;;;;;;;;;;5060047;27;20043;-69
2023/08/01 10:03:41;;;;;;;8.05;4.90;;;;;;;;;;5053998;28;20041;-65
2023/08/01 10:06:08;;;;;;;8.15;4.90;;;;;;;;;;5055351;28;20037;-65
2023/08/01 10:08:35;;;;;;;6.95;4.50;;;;;;;;;;5045152;28;20752;-63
2023/08/01 10:11:05;;;;;;;8.32;5.15;;;;;;;;;;5054198;28;20037;-65
2023/08/01 10:13:32;;;;;;;11.45;5.72;;;;;;;;;;5050687;28;21128;-65
2023/08/01 10:16:00;;;;;;;9.02;5.50;;;;;;;;;;5054858;28;20131;-65
2023/08/01 10:18:29;;;;;;;8.40;5.22;;;;;;;;;;5052839;28;20044;-64
2023/08/01 10:20:56;;;;;;;9.40;5.70;;;;;;;;;;5046735;28;20166;-67
2023/08/01 10:23:22;;;;;;;8.68;4.97;;;;;;;;;;5053820;28;20078;-65
2023/08/01 10:25:49;;;;;;;10.57;5.95;;;;;;;;;;5053613;28;20459;-64
2023/08/01 10:28:16;;;;;;;9.55;5.63;;;;;;;;;;5050392;28;20054;-65
2023/08/01 10:30:43;;;;;;;7.65;5.32;;;;;;;;;;5053861;28;20055;-65
2023/08/01 10:33:12;;;;;;;10.30;5.68;;;;;;;;;;5051917;28;20033;-64
2023/08/01 10:35:40;;;;;;;12.02;5.78;;;;;;;;;;5052286;28;20131;-64
2023/08/01 10:38:08;;;;;;;9.52;5.30;;;;;;;;;;5053031;28;20126;-64
2023/08/01 10:40:36;;;;;;;9.13;5.40;;;;;;;;;;5052531;28;20491;-64
2023/08/01 10:43:02;;;;;;;12.60;5.82;;;;;;;;;;5053459;28;20342;-64
2023/08/01 10:45:29;;;;;;;8.90;5.50;;;;;;;;;;5054566;28;20051;-64
2023/08/01 10:48:07;;;;;;;8.90;5.45;;;;;;;;;;5054733;28;20637;-64
2023/08/01 10:50:34;;;;;;;8.65;5.15;;;;;;;;;;5053664;28;20060;-64
2023/08/01 10:53:05;;;;;;;8.98;5.07;;;;;;;;;;5054186;28;21690;-65
2023/08/01 10:55:45;;;;;;;9.48;5.57;;;;;;;;;;5052745;28;20163;-64
2023/08/01 10:58:11;;;;;;;13.05;5.45;;;;;;;;;;5051803;28;20098;-64
2023/08/01 11:00:38;;;;;;;10.35;5.20;;;;;;;;;;5053067;28;20040;-65
2023/08/01 11:03:05;;;;;;;8.70;5.13;;;;;;;;;;5050978;28;20987;-65
2023/08/01 11:05:32;;;;;;;11.93;5.57;;;;;;;;;;5051780;28;20143;-64
2023/08/01 11:07:59;;;;;;;10.88;5.70;;;;;;;;;;5053958;28;20055;-64
2023/08/01 11:10:26;;;;;;;9.10;5.72;;;;;;;;;;5051601;28;20049;-64
2023/08/01 11:12:53;;;;;;;12.45;5.95;;;;;;;;;;5069606;28;20082;-64
2023/08/01 11:15:20;;;;;;;10.98;5.85;;;;;;;;;;5038540;28;20045;-64
2023/08/01 11:17:50;;;;;;;10.27;6.13;;;;;;;;;;5051692;28;20171;-64
2023/08/01 11:20:17;;;;;;;9.63;5.60;;;;;;;;;;5060381;28;20048;-64
2023/08/01 11:22:54;;;;;;;13.25;5.55;;;;;;;;;;5061859;28;20040;-63
2023/08/01 11:25:32;;;;;;;10.82;6.10;;;;;;;;;;5071075;28;20044;-63
2023/08/01 11:28:02;;;;;;;8.70;5.32;;;;;;;;;;5053484;28;20052;-64
2023/08/01 11:30:35;;;;;;;10.60;5.28;;;;;;;;;;5053359;28;20652;-66
2023/08/01 11:33:04;;;;;;;11.40;5.70;;;;;;;;;;5055369;28;20044;-63
2023/08/01 11:35:30;;;;;;;11.27;5.47;;;;;;;;;;5052822;28;20405;-64
2023/08/01 11:37:58;;;;;;;11.88;5.78;;;;;;;;;;5052758;28;20048;-64
2023/08/01 11:40:25;;;;;;;10.10;5.10;;;;;;;;;;5051571;28;20032;-64
2023/08/01 11:42:51;;;;;;;9.10;5.95;;;;;;;;;;5053552;28;20045;-64
2023/08/01 11:45:18;;;;;;;11.13;5.65;;;;;;;;;;5054669;28;20052;-64
2023/08/01 11:47:48;;;;;;;11.18;5.70;;;;;;;;;;5050487;28;20047;-63
2023/08/01 11:50:15;;;;;;;9.65;5.85;;;;;;;;;;5072847;28;20063;-66
2023/08/01 11:52:42;;;;;;;11.20;5.53;;;;;;;;;;5055870;28;20086;-64
2023/08/01 11:55:09;;;;;;;8.55;5.40;;;;;;;;;;5055647;28;20035;-66
2023/08/01 11:57:35;;;;;;;11.75;6.72;;;;;;;;;;5047879;28;20102;-68
2023/08/01 12:00:02;;;;;;;13.15;6.53;;;;;;;;;;5054474;28;20047;-65
2023/08/01 12:02:30;;;;;;;13.90;6.43;;;;;;;;;;5058979;28;20480;-70
2023/08/01 12:04:56;;;;;;;10.13;6.18;;;;;;;;;;5054933;28;20457;-65
2023/08/01 12:07:25;;;;;;;12.35;6.35;;;;;;;;;;5058033;28;20453;-65
2023/08/01 12:09:59;;;;;;;11.40;6.88;;;;;;;;;;5056149;28;20028;-66
2023/08/01 12:12:28;;;;;;;9.57;6.50;;;;;;;;;;5056248;28;20033;-66
2023/08/01 12:14:55;;;;;;;12.25;6.95;;;;;;;;;;5052042;27;20147;-65
2023/08/01 12:17:24;;;;;;;12.90;7.35;;;;;;;;;;5066230;28;20043;-68
2023/08/01 12:19:51;;;;;;;11.48;6.95;;;;;;;;;;5055490;28;20040;-67
2023/08/01 12:22:17;;;;;;;11.10;6.25;;;;;;;;;;5057206;28;20044;-65
2023/08/01 12:24:44;;;;;;;13.98;6.97;;;;;;;;;;5055249;28;20061;-64
2023/08/01 12:27:11;;;;;;;13.50;6.93;;;;;;;;;;5055495;28;20072;-66
2023/08/01 12:29:37;;;;;;;13.95;6.55;;;;;;;;;;5055731;28;20043;-67
2023/08/01 12:32:06;;;;;;;12.88;6.68;;;;;;;;;;5055245;28;20496;-64
2023/08/01 12:34:33;;;;;;;12.15;7.07;;;;;;;;;;5053542;28;20047;-66
2023/08/01 12:36:59;;;;;;;12.00;7.22;;;;;;;;;;5070980;28;20067;-66
2023/08/01 12:39:26;;;;;;;11.75;7.50;;;;;;;;;;5052756;28;20381;-65
2023/08/01 12:41:56;;;;;;;11.80;7.22;;;;;;;;;;5057218;28;20079;-66
2023/08/01 12:44:23;;;;;;;11.63;6.07;;;;;;;;;;5054671;28;20047;-65
2023/08/01 12:46:49;;;;;;;10.00;6.70;;;;;;;;;;5049333;28;20075;-64
2023/08/01 12:49:16;;;;;;;13.52;7.32;;;;;;;;;;5073919;28;20044;-63
2023/08/01 12:51:42;;;;;;;14.80;7.30;;;;;;;;;;5057400;28;20036;-62
2023/08/01 12:54:09;;;;;;;13.18;6.35;;;;;;;;;;5057317;28;20044;-63
2023/08/01 12:56:36;;;;;;;13.90;6.72;;;;;;;;;;5057594;28;20254;-62
2023/08/01 12:59:02;;;;;;;11.05;6.85;;;;;;;;;;5056858;28;20033;-62
2023/08/01 13:01:29;;;;;;;10.63;6.47;;;;;;;;;;5058228;28;20033;-63
2023/08/01 13:03:55;;;;;;;9.77;5.82;;;;;;;;;;5059087;28;20983;-63
2023/08/01 13:06:22;;;;;;;12.73;7.47;;;;;;;;;;5059274;28;20370;-65
2023/08/01 13:08:49;;;;;;;14.57;7.07;;;;;;;;;;5059954;28;20036;-66
2023/08/01 13:11:16;;;;;;;14.80;7.80;;;;;;;;;;5062419;28;20864;-65
2023/08/01 13:13:43;;;;;;;11.45;7.28;;;;;;;;;;5064233;28;20436;-71
2023/08/01 13:16:10;;;;;;;14.02;7.07;;;;;;;;;;5064274;28;20056;-65
2023/08/01 13:18:43;;;;;;;14.23;7.15;;;;;;;;;;5062931;28;20024;-65
2023/08/01 13:21:10;;;;;;;12.75;7.53;;;;;;;;;;5064186;28;20060;-65
2023/08/01 13:23:37;;;;;;;12.10;7.60;;;;;;;;;;5064303;28;20035;-67
2023/08/01 13:26:03;;;;;;;15.93;7.63;;;;;;;;;;5058123;28;20041;-67
2023/08/01 13:28:30;;;;;;;15.43;7.53;;;;;;;;;;5052935;28;20055;-65
2023/08/01 13:30:57;;;;;;;15.30;7.45;;;;;;;;;;5055671;28;20871;-64
2023/08/01 13:33:23;;;;;;;12.10;6.78;;;;;;;;;;5057586;28;20081;-65
2023/08/01 13:35:52;;;;;;;15.45;8.10;;;;;;;;;;5055041;28;20102;-64
2023/08/01 13:38:19;;;;;;;10.98;7.18;;;;;;;;;;5056521;28;20044;-65
2023/08/01 13:40:46;;;;;;;11.88;7.20;;;;;;;;;;5056077;28;20063;-64
2023/08/01 13:43:12;;;;;;;14.00;7.20;;;;;;;;;;5056036;28;20047;-64
2023/08/01 13:45:39;;;;;;;12.40;7.28;;;;;;;;;;5055538;28;20046;-65
2023/08/01 13:48:05;;;;;;;13.73;7.57;;;;;;;;;;5055695;28;20052;-64
2023/08/01 13:50:32;;;;;;;12.60;7.32;;;;;;;;;;5054708;28;20029;-65
2023/08/01 13:52:58;;;;;;;12.25;6.47;;;;;;;;;;5055537;28;20055;-66
2023/08/01 13:55:25;;;;;;;12.70;6.97;;;;;;;;;;5053742;28;20052;-64
2023/08/01 13:57:52;;;;;;;10.63;6.40;;;;;;;;;;5053516;28;20033;-63
2023/08/01 14:00:19;;;;;;;10.50;6.35;;;;;;;;;;5055508;28;20090;-65
2023/08/01 14:02:45;;;;;;;12.65;7.13;;;;;;;;;;5046676;28;20104;-65
2023/08/01 14:05:12;;;;;;;12.23;6.25;;;;;;;;;;5055392;28;20044;-63
2023/08/01 14:07:38;;;;;;;10.55;6.05;;;;;;;;;;5054213;28;20116;-64
2023/08/01 14:10:06;;;;;;;11.15;6.20;;;;;;;;;;5055264;28;20042;-64
2023/08/01 14:12:32;;;;;;;8.85;5.40;;;;;;;;;;5054369;28;20569;-64
2023/08/01 14:14:59;;;;;;;12.68;6.15;;;;;;;;;;5055719;28;20045;-64
2023/08/01 14:17:25;;;;;;;11.00;6.22;;;;;;;;;;5052695;28;20045;-64
2023/08/01 14:19:52;;;;;;;9.90;5.93;;;;;;;;;;5055736;28;20036;-65
2023/08/01 14:22:19;;;;;;;9.10;5.97;;;;;;;;;;5058212;27;20041;-65
2023/08/01 14:24:46;;;;;;;10.23;5.80;;;;;;;;;;5053008;28;20109;-64
2023/08/01 14:27:12;;;;;;;12.80;5.85;;;;;;;;;;5056180;28;20059;-64
2023/08/01 14:29:40;;;;;;;9.48;5.45;;;;;;;;;;5055650;28;20273;-65
2023/08/01 14:32:07;;;;;;;9.00;5.28;;;;;;;;;;5073037;28;20044;-66
2023/08/01 14:34:33;;;;;;;10.23;5.32;;;;;;;;;;5053881;28;20533;-64
2023/08/01 14:37:00;;;;;;;10.80;5.80;;;;;;;;;;5062330;28;20385;-65
2023/08/01 14:39:27;;;;;;;14.25;5.78;;;;;;;;;;5053417;28;20036;-68
2023/08/01 14:41:53;;;;;;;11.05;5.35;;;;;;;;;;5052421;28;20041;-64
2023/08/01 14:44:20;;;;;;;12.27;5.40;;;;;;;;;;5053579;28;20097;-64
2023/08/01 14:46:47;;;;;;;14.18;5.88;;;;;;;;;;5051907;28;20040;-66
2023/08/01 14:49:14;;;;;;;10.93;5.63;;;;;;;;;;5054124;28;20045;-64
2023/08/01 14:51:41;;;;;;;9.50;4.97;;;;;;;;;;5056386;28;20552;-64
2023/08/01 14:54:07;;;;;;;13.77;5.90;;;;;;;;;;5054351;28;20153;-64
2023/08/01 14:56:34;;;;;;;12.38;6.38;;;;;;;;;;5052777;28;20032;-63
2023/08/01 14:59:00;;;;;;;8.85;5.72;;;;;;;;;;5052251;28;20060;-64
2023/08/01 15:01:27;;;;;;;12.80;5.55;;;;;;;;;;5054602;28;20031;-65
2023/08/01 15:03:54;;;;;;;9.93;5.53;;;;;;;;;;5052735;28;20065;-63
2023/08/01 15:06:20;;;;;;;11.52;5.90;;;;;;;;;;5054941;28;20512;-64
2023/08/01 15:08:47;;;;;;;9.18;5.00;;;;;;;;;;5056640;28;20118;-64
2023/08/01 15:11:14;;;;;;;10.13;5.05;;;;;;;;;;5055748;28;20032;-65
2023/08/01 15:13:40;;;;;;;10.73;6.13;;;;;;;;;;5041503;28;20110;-63
2023/08/01 15:16:11;;;;;;;11.05;5.60;;;;;;;;;;5069757;28;20093;-65
2023/08/01 15:18:37;;;;;;;12.10;6.45;;;;;;;;;;5053220;28;20113;-64
2023/08/01 15:21:26;;;;;;;10.13;5.25;;;;;;;;;;5053979;28;20071;-65
2023/08/01 15:23:54;;;;;;;9.30;4.90;;;;;;;;;;5056569;28;20043;-65
2023/08/01 15:26:20;;;;;;;9.15;5.07;;;;;;;;;;5055574;28;20531;-64
2023/08/01 15:28:47;;;;;;;7.78;4.85;;;;;;;;;;5037362;28;20056;-64
2023/08/01 15:31:13;;;;;;;7.68;4.78;;;;;;;;;;5052869;28;20080;-66
2023/08/01 15:33:43;;;;;;;8.55;4.80;;;;;;;;;;5028581;28;20911;-64
2023/08/01 15:36:10;;;;;;;8.48;4.85;;;;;;;;;;5020241;28;20041;-65
2023/08/01 15:38:38;;;;;;;7.10;4.40;;;;;;;;;;5027429;28;22241;-64
2023/08/01 15:41:08;;;;;;;8.07;5.07;;;;;;;;;;5033092;28;20569;-65
2023/08/01 15:43:36;;;;;;;7.00;4.80;;;;;;;;;;5050407;28;21115;-64
2023/08/01 15:46:04;;;;;;;65.40;9.45;;;;;;;;;;5054375;28;20047;-64
2023/08/01 15:48:31;;;;;;;10.73;5.60;;;;;;;;;;5049689;28;20200;-63
2023/08/01 15:50:58;;;;;;;14.57;6.32;;;;;;;;;;5056430;28;20149;-65
2023/08/01 15:53:24;;;;;;;10.73;6.60;;;;;;;;;;5053280;28;20127;-65